Time;durP1;ratioP1;P1;durP2;ratioP2;P2;SDS_P1;SDS_P2;PMS_P1;PMS_P2;Temp;Humidity;BMP_temperature;BMP_pressure;BME280_temperature;BME280_humidity;BME280_pressure;Samples;Min_cycle;Max_cycle;Signal;HPM_P1;HPM_P2
2023/07/24 00:01:46;;;;;;;4.28;3.00;;;;;;;17.28;100.00;100438.06;5029306;28;20495;-63
2023/07/24 00:04:11;;;;;;;4.78;3.10;;;;;;;17.30;100.00;100443.19;5020514;28;20117;-63
2023/07/24 00:06:36;;;;;;;4.40;3.30;;;;;;;17.31;100.00;100431.41;5023727;28;20029;-63
2023/07/24 00:09:02;;;;;;;7.07;3.50;;;;;;;17.32;100.00;100433.88;5016338;28;20025;-63
2023/07/24 00:11:27;;;;;;;5.05;3.58;;;;;;;17.34;100.00;100431.78;5019783;28;20037;-64
2023/07/24 00:13:52;;;;;;;5.85;4.00;;;;;;;17.38;100.00;100429.50;5024593;28;20061;-63
2023/07/24 00:16:18;;;;;;;4.90;3.88;;;;;;;17.40;100.00;100430.09;5020788;28;20037;-62
2023/07/24 00:18:43;;;;;;;5.43;4.20;;;;;;;17.42;100.00;100422.63;5027690;28;20025;-63
2023/07/24 00:21:10;;;;;;;5.50;4.15;;;;;;;17.43;100.00;100418.91;5020854;28;20034;-63
2023/07/24 00:23:35;;;;;;;5.10;4.10;;;;;;;17.44;100.00;100414.34;5024934;28;20025;-63
2023/07/24 00:26:01;;;;;;;9.18;4.32;;;;;;;17.42;100.00;100411.91;5019574;28;20036;-62
2023/07/24 00:28:26;;;;;;;5.82;3.90;;;;;;;17.42;100.00;100403.03;5028495;28;20375;-63
2023/07/24 00:30:51;;;;;;;7.53;4.05;;;;;;;17.42;100.00;100398.47;5025566;28;20030;-63
2023/07/24 00:33:17;;;;;;;6.72;3.80;;;;;;;17.41;100.00;100399.53;5027641;28;20021;-64
2023/07/24 00:35:42;;;;;;;4.97;3.97;;;;;;;17.41;100.00;100394.16;5027698;28;20032;-63
2023/07/24 00:38:07;;;;;;;5.95;3.95;;;;;;;17.39;100.00;100398.09;5027424;28;20539;-63
2023/07/24 00:40:32;;;;;;;5.40;3.78;;;;;;;17.42;100.00;100397.66;5026395;28;20029;-63
2023/07/24 00:42:58;;;;;;;5.28;3.90;;;;;;;17.41;100.00;100396.84;5014781;28;20079;-63
2023/07/24 00:45:23;;;;;;;6.28;4.10;;;;;;;17.39;100.00;100392.75;5020497;28;20040;-63
2023/07/24 00:47:49;;;;;;;6.68;4.10;;;;;;;17.41;100.00;100390.66;5023737;28;20106;-63
2023/07/24 00:50:15;;;;;;;6.03;3.97;;;;;;;17.41;100.00;100393.34;5021226;28;20045;-63
2023/07/24 00:52:42;;;;;;;7.80;4.10;;;;;;;17.39;100.00;100379.31;5023521;28;20642;-64
2023/07/24 00:55:08;;;;;;;4.85;3.95;;;;;;;17.38;100.00;100375.81;5021762;28;20045;-63
2023/07/24 00:57:34;;;;;;;5.93;4.28;;;;;;;17.37;100.00;100379.53;5027473;28;20033;-63
2023/07/24 00:59:59;;;;;;;5.57;4.18;;;;;;;17.36;100.00;100369.84;5025093;28;20037;-64
2023/07/24 01:02:25;;;;;;;8.80;5.15;;;;;;;17.35;100.00;100368.22;5025980;28;20033;-63
2023/07/24 01:04:51;;;;;;;7.30;4.70;;;;;;;17.33;100.00;100365.72;5017905;28;20061;-63
2023/07/24 01:07:16;;;;;;;7.63;5.05;;;;;;;17.32;100.00;100364.09;5024935;28;20033;-63
2023/07/24 01:09:42;;;;;;;6.22;4.65;;;;;;;17.32;100.00;100366.78;5025798;28;20034;-63
2023/07/24 01:12:26;;;;;;;7.10;4.80;;;;;;;17.30;100.00;100360.81;5021901;28;20515;-63
2023/07/24 01:15:23;;;;;;;6.07;4.65;;;;;;;17.30;100.00;100355.44;5019646;28;20115;-63
2023/07/24 01:17:58;;;;;;;7.55;4.63;;;;;;;17.29;100.00;100361.03;5026453;28;20155;-63
2023/07/24 01:20:26;;;;;;;7.07;4.43;;;;;;;17.28;100.00;100357.53;5020053;28;20243;-63
2023/07/24 01:23:26;;;;;;;7.72;4.68;;;;;;;17.27;100.00;100353.22;5017713;28;20063;-63
2023/07/24 01:25:55;;;;;;;5.57;4.43;;;;;;;17.25;100.00;100347.25;5027532;28;20057;-63
2023/07/24 01:28:21;;;;;;;;;;;;;;;17.26;100.00;100342.72;5017991;28;20037;-63
2023/07/24 01:30:46;;;;;;;9.30;4.80;;;;;;;17.26;100.00;100353.44;5022851;28;20472;-63
2023/07/24 01:33:11;;;;;;;6.00;4.28;;;;;;;17.23;100.00;100344.00;5030206;28;20021;-63
2023/07/24 01:35:38;;;;;;;7.55;4.35;;;;;;;17.23;100.00;100337.81;5020170;28;20040;-63
2023/07/24 01:38:03;;;;;;;7.35;4.80;;;;;;;17.22;100.00;100336.16;5020960;28;20040;-63
2023/07/24 01:40:29;;;;;;;10.50;5.00;;;;;;;17.21;100.00;100335.34;5018613;28;20029;-63
2023/07/24 01:42:54;;;;;;;6.47;4.43;;;;;;;17.22;100.00;100325.44;5021115;28;20787;-62
2023/07/24 01:45:20;;;;;;;6.18;4.50;;;;;;;17.20;100.00;100328.34;5020764;28;20072;-63
2023/07/24 01:47:45;;;;;;;7.32;4.60;;;;;;;17.20;100.00;100327.53;5021607;28;20107;-63
2023/07/24 01:50:10;;;;;;;9.68;5.05;;;;;;;17.19;100.00;100320.53;5022365;28;20020;-63
2023/07/24 01:52:36;;;;;;;7.38;4.82;;;;;;;17.18;100.00;100322.38;5020044;28;20387;-63
2023/07/24 01:55:01;;;;;;;7.28;5.00;;;;;;;17.18;100.00;100317.03;5023344;28;20486;-63
2023/07/24 01:57:26;;;;;;;9.18;5.32;;;;;;;17.20;100.00;100311.44;5020982;28;20112;-63
2023/07/24 01:59:52;;;;;;;9.70;5.03;;;;;;;17.19;100.00;100317.84;5016183;28;20113;-63
2023/07/24 02:02:17;;;;;;;6.95;5.07;;;;;;;17.18;100.00;100308.97;5022832;28;20422;-63
2023/07/24 02:04:42;;;;;;;8.45;4.97;;;;;;;17.19;100.00;100309.78;5021076;28;20021;-63
2023/07/24 02:07:08;;;;;;;6.80;5.28;;;;;;;17.17;100.00;100301.97;5018854;28;20573;-63
2023/07/24 02:09:33;;;;;;;5.80;5.03;;;;;;;17.17;100.00;100303.84;5023293;28;20032;-63
2023/07/24 02:11:58;;;;;;;7.72;4.85;;;;;;;17.16;100.00;100302.19;5016541;28;20037;-63
2023/07/24 02:14:24;;;;;;;9.80;4.50;;;;;;;17.15;100.00;100292.50;5022296;28;20033;-63
2023/07/24 02:16:49;;;;;;;6.93;4.40;;;;;;;17.14;100.00;100296.25;5025558;28;20648;-63
2023/07/24 02:19:14;;;;;;;6.25;4.25;;;;;;;17.13;100.00;100291.91;5015455;28;20068;-64
2023/07/24 02:21:40;;;;;;;5.75;4.50;;;;;;;17.12;100.00;100296.47;5020079;28;20025;-64
2023/07/24 02:24:06;;;;;;;6.15;4.30;;;;;;;17.11;100.00;100294.84;5026094;28;20032;-63
2023/07/24 02:26:31;;;;;;;7.07;4.18;;;;;;;17.10;100.00;100290.50;5020009;28;20055;-63
2023/07/24 02:28:56;;;;;;;6.57;4.20;;;;;;;17.10;100.00;100292.38;5019296;28;20022;-63
2023/07/24 02:31:22;;;;;;;5.38;3.45;;;;;;;17.09;100.00;100291.56;5015859;28;20102;-64
2023/07/24 02:33:47;;;;;;;4.72;3.90;;;;;;;17.09;100.00;100291.56;5024765;28;20398;-63
2023/07/24 02:36:12;;;;;;;5.72;3.70;;;;;;;17.08;100.00;100289.09;5026293;28;20471;-63
2023/07/24 02:38:37;;;;;;;3.95;3.40;;;;;;;17.07;100.00;100292.84;5019654;28;20104;-64
2023/07/24 02:41:03;;;;;;;4.85;3.28;;;;;;;17.06;100.00;100296.53;5019498;28;20438;-64
2023/07/24 02:43:28;;;;;;;5.88;3.55;;;;;;;17.01;100.00;100289.97;5023255;28;20025;-64
2023/07/24 02:45:53;;;;;;;4.90;3.50;;;;;;;17.00;100.00;100285.66;5023970;28;20143;-63
2023/07/24 02:48:18;;;;;;;5.30;3.50;;;;;;;16.98;100.00;100292.31;5025208;28;20030;-64
2023/07/24 02:50:44;;;;;;;4.95;3.38;;;;;;;16.95;100.00;100293.56;5020879;28;20038;-62
2023/07/24 02:53:09;;;;;;;4.90;3.55;;;;;;;16.93;100.00;100302.91;5015706;28;20491;-62
2023/07/24 02:55:34;;;;;;;3.72;3.22;;;;;;;16.89;100.00;100283.75;5016068;28;20076;-62
2023/07/24 02:57:59;;;;;;;3.63;2.95;;;;;;;16.87;100.00;100285.03;5018027;28;20487;-62
2023/07/24 03:00:24;;;;;;;4.45;3.30;;;;;;;16.82;100.00;100272.28;5019906;28;20051;-62
2023/07/24 03:02:52;;;;;;;3.72;3.22;;;;;;;16.79;100.00;100269.25;5025838;28;20044;-62
2023/07/24 03:05:17;;;;;;;3.88;3.00;;;;;;;16.75;100.00;100265.34;5022970;28;20029;-62
2023/07/24 03:07:42;;;;;;;5.25;2.92;;;;;;;16.67;100.00;100271.84;5019491;28;20033;-62
2023/07/24 03:10:08;;;;;;;3.72;2.60;;;;;;;16.64;100.00;100267.72;5024937;28;20061;-62
2023/07/24 03:12:33;;;;;;;3.35;2.70;;;;;;;16.65;100.00;100273.91;5024001;28;20063;-62
2023/07/24 03:14:59;;;;;;;3.47;2.92;;;;;;;16.63;100.00;100262.59;5025696;28;20029;-62
2023/07/24 03:17:24;;;;;;;4.20;3.13;;;;;;;16.63;100.00;100265.25;5017097;28;20717;-62
2023/07/24 03:19:49;;;;;;;4.97;3.15;;;;;;;16.60;100.00;100260.34;5021269;28;20113;-62
2023/07/24 03:22:15;;;;;;;3.75;3.00;;;;;;;16.59;100.00;100262.22;5014015;28;21310;-62
2023/07/24 03:24:40;;;;;;;3.75;3.20;;;;;;;16.59;100.00;100266.75;5026350;28;20029;-62
2023/07/24 03:27:05;;;;;;;4.93;3.20;;;;;;;16.56;100.00;100251.13;5020398;28;20029;-62
2023/07/24 03:29:30;;;;;;;3.80;3.35;;;;;;;16.52;100.00;100247.25;5025181;28;20496;-62
2023/07/24 03:31:56;;;;;;;4.70;3.40;;;;;;;16.51;100.00;100254.50;5025268;28;20603;-62
2023/07/24 03:34:21;;;;;;;4.75;3.42;;;;;;;16.49;100.00;100248.53;5026234;28;20017;-62
2023/07/24 03:36:46;;;;;;;5.47;3.65;;;;;;;16.48;100.00;100262.97;5021305;28;20022;-62
2023/07/24 03:39:12;;;;;;;4.25;3.50;;;;;;;16.47;100.00;100261.31;5023503;28;20025;-62
2023/07/24 03:41:38;;;;;;;3.97;3.58;;;;;;;16.46;100.00;100269.56;5024935;28;20025;-62
2023/07/24 03:44:04;;;;;;;5.03;3.92;;;;;;;16.43;100.00;100260.13;5025176;28;20021;-62
2023/07/24 03:46:29;;;;;;;5.57;3.83;;;;;;;16.41;100.00;100257.66;5022221;28;20510;-62
2023/07/24 03:48:55;;;;;;;4.70;3.92;;;;;;;16.40;100.00;100245.31;5025382;28;20029;-62
2023/07/24 03:51:20;;;;;;;5.25;4.20;;;;;;;16.37;100.00;100243.06;5028730;28;20116;-62
2023/07/24 03:53:46;;;;;;;7.07;4.50;;;;;;;16.37;100.00;100248.44;5029058;28;20037;-62
2023/07/24 03:56:11;;;;;;;5.70;4.32;;;;;;;16.38;100.00;100260.78;5023260;28;20029;-62
2023/07/24 03:58:38;;;;;;;5.20;4.55;;;;;;;16.37;100.00;100269.06;5027015;28;20030;-62
2023/07/24 04:01:03;;;;;;;5.50;4.60;;;;;;;16.36;100.00;100262.88;5019236;28;20152;-62
2023/07/24 04:03:29;;;;;;;8.43;4.88;;;;;;;16.34;100.00;100261.47;5029594;28;20113;-62
2023/07/24 04:05:54;;;;;;;5.38;4.65;;;;;;;16.32;100.00;100259.00;5020757;28;20022;-62
2023/07/24 04:08:19;;;;;;;6.80;4.60;;;;;;;16.31;100.00;100261.91;5028213;28;20092;-62
2023/07/24 04:10:45;;;;;;;6.22;4.80;;;;;;;16.29;100.00;100261.31;5026110;28;20113;-62
2023/07/24 04:13:10;;;;;;;5.93;4.28;;;;;;;16.28;100.00;100259.69;5026281;28;20025;-62
2023/07/24 04:15:35;;;;;;;5.93;4.90;;;;;;;16.26;100.00;100270.63;5023816;28;20037;-62
2023/07/24 04:18:00;;;;;;;5.80;5.15;;;;;;;16.25;100.00;100266.31;5024464;28;20048;-62
2023/07/24 04:20:26;;;;;;;6.20;5.35;;;;;;;16.22;100.00;100266.75;5020795;28;20057;-62
2023/07/24 04:22:51;;;;;;;6.95;5.38;;;;;;;16.21;100.00;100267.78;5021827;28;20030;-62
2023/07/24 04:25:16;;;;;;;7.43;5.30;;;;;;;16.19;100.00;100275.22;5023093;28;20137;-62
2023/07/24 04:27:42;;;;;;;6.03;5.00;;;;;;;16.18;100.00;100283.47;5019064;28;20029;-62
2023/07/24 04:30:07;;;;;;;6.03;5.10;;;;;;;16.15;100.00;100275.88;5022571;28;20068;-62
2023/07/24 04:32:33;;;;;;;6.22;5.60;;;;;;;16.12;100.00;100279.81;5026638;28;20084;-62
2023/07/24 04:34:58;;;;;;;7.55;5.90;;;;;;;16.10;100.00;100273.84;5025611;28;20037;-62
2023/07/24 04:37:23;;;;;;;6.35;5.75;;;;;;;16.09;100.00;100266.88;5026938;28;20398;-61
2023/07/24 04:39:49;;;;;;;7.85;6.38;;;;;;;16.06;100.00;100272.66;5021667;28;20024;-62
2023/07/24 04:42:14;;;;;;;10.57;6.28;;;;;;;16.05;100.00;100276.38;5026783;28;20443;-62
2023/07/24 04:44:39;;;;;;;8.10;6.60;;;;;;;16.02;100.00;100276.81;5027915;28;20017;-62
2023/07/24 04:47:04;;;;;;;7.88;6.40;;;;;;;16.00;100.00;100271.69;5020423;28;20430;-62
2023/07/24 04:49:30;;;;;;;8.93;6.95;;;;;;;15.96;100.00;100275.03;5023473;28;20018;-62
2023/07/24 04:51:56;;;;;;;7.65;6.50;;;;;;;15.97;100.00;100274.81;5018050;28;20022;-62
2023/07/24 04:54:21;;;;;;;9.02;6.88;;;;;;;15.94;100.00;100274.44;5016753;28;20067;-62
2023/07/24 04:56:47;;;;;;;8.00;7.20;;;;;;;15.93;100.00;100276.28;5024325;28;20049;-62
2023/07/24 04:59:12;;;;;;;8.23;6.60;;;;;;;15.91;100.00;100277.56;5014631;28;20045;-62
2023/07/24 05:01:37;;;;;;;9.63;6.95;;;;;;;15.88;100.00;100283.31;5017037;28;20030;-62
2023/07/24 05:04:03;;;;;;;9.93;6.93;;;;;;;15.85;100.00;100275.72;5029342;28;20029;-62
2023/07/24 05:06:28;;;;;;;7.97;6.47;;;;;;;15.82;100.00;100279.66;5028729;28;20056;-62
2023/07/24 05:08:53;;;;;;;10.15;7.25;;;;;;;15.78;100.00;100271.25;5022751;28;20021;-62
2023/07/24 05:11:19;;;;;;;8.55;7.38;;;;;;;15.77;100.00;100279.50;5019888;28;20523;-64
2023/07/24 05:13:44;;;;;;;9.27;6.97;;;;;;;15.75;100.00;100276.22;5020984;28;20122;-64
2023/07/24 05:16:09;;;;;;;9.82;7.20;;;;;;;15.72;100.00;100282.03;5020297;28;20036;-64
2023/07/24 05:18:34;;;;;;;10.32;7.88;;;;;;;15.70;100.00;100281.41;5021723;28;20029;-64
2023/07/24 05:21:00;;;;;;;8.68;7.53;;;;;;;15.69;100.00;100293.16;5025378;28;20079;-64
2023/07/24 05:23:25;;;;;;;10.68;8.45;;;;;;;15.71;100.00;100296.44;5020335;28;20384;-64
2023/07/24 05:26:01;;;;;;;11.65;7.88;;;;;;;15.72;100.00;100303.44;5017808;28;20470;-64
2023/07/24 05:28:27;;;;;;;11.13;7.70;;;;;;;15.71;100.00;100297.25;5022131;28;20026;-64
2023/07/24 05:30:53;;;;;;;9.18;8.18;;;;;;;15.70;100.00;100300.16;5014510;28;20061;-63
2023/07/24 05:33:18;;;;;;;11.75;8.23;;;;;;;15.70;100.00;100305.50;5018860;28;20060;-64
2023/07/24 05:35:43;;;;;;;15.85;8.23;;;;;;;15.68;100.00;100300.38;5023487;28;20021;-64
2023/07/24 05:38:09;;;;;;;10.63;8.60;;;;;;;15.70;100.00;100306.34;5014465;28;20025;-64
2023/07/24 05:40:34;;;;;;;12.15;8.75;;;;;;;15.72;100.00;100304.25;5021059;28;20029;-64
2023/07/24 05:43:00;;;;;;;10.90;8.50;;;;;;;15.73;100.00;100305.91;5017710;28;20026;-64
2023/07/24 05:45:26;;;;;;;11.38;8.30;;;;;;;15.71;100.00;100299.94;5024575;28;20021;-64
2023/07/24 05:47:51;;;;;;;10.63;7.80;;;;;;;15.74;100.00;100296.81;5018112;28;20026;-64
2023/07/24 05:50:17;;;;;;;10.05;7.97;;;;;;;15.76;100.00;100299.28;5023165;28;20024;-63
2023/07/24 05:52:42;;;;;;;10.63;8.80;;;;;;;15.75;100.00;100297.66;5021130;28;20048;-63
2023/07/24 05:55:08;;;;;;;13.15;8.57;;;;;;;15.74;100.00;100299.50;5016331;28;20095;-64
2023/07/24 05:57:33;;;;;;;11.35;8.80;;;;;;;15.79;100.00;100305.03;5021202;28;20640;-64
2023/07/24 05:59:58;;;;;;;11.32;8.68;;;;;;;15.82;100.00;100305.63;5014779;28;20129;-63
2023/07/24 06:02:23;;;;;;;11.75;8.90;;;;;;;15.82;100.00;100310.97;5025055;28;20033;-64
2023/07/24 06:04:49;;;;;;;11.10;8.85;;;;;;;15.82;100.00;100310.97;5022179;28;20108;-64
2023/07/24 06:07:14;;;;;;;13.63;9.70;;;;;;;15.83;100.00;100317.97;5024922;28;20512;-64
2023/07/24 06:09:39;;;;;;;14.13;10.07;;;;;;;15.80;100.00;100324.56;5022112;28;20030;-64
2023/07/24 06:12:05;;;;;;;15.20;10.48;;;;;;;15.78;100.00;100323.97;5019996;28;20569;-64
2023/07/24 06:14:30;;;;;;;13.70;10.35;;;;;;;15.78;100.00;100308.72;5020822;28;20033;-64
2023/07/24 06:16:55;;;;;;;14.75;10.38;;;;;;;15.78;100.00;100313.28;5021559;28;20020;-64
2023/07/24 06:19:21;;;;;;;18.65;10.38;;;;;;;15.82;100.00;100308.28;5017494;28;20033;-64
2023/07/24 06:21:46;;;;;;;13.15;10.10;;;;;;;15.87;100.00;100317.31;5019406;28;20024;-64
2023/07/24 06:24:12;;;;;;;14.48;10.15;;;;;;;15.96;100.00;100315.19;5021392;28;20021;-64
2023/07/24 06:26:38;;;;;;;13.38;9.57;;;;;;;16.02;100.00;100311.66;5021027;28;20021;-64
2023/07/24 06:29:03;;;;;;;14.13;9.60;;;;;;;16.02;100.00;100320.50;5017595;28;20013;-64
2023/07/24 06:31:28;;;;;;;12.48;9.60;;;;;;;16.04;100.00;100318.41;5011768;28;20072;-63
2023/07/24 06:33:54;;;;;;;11.55;8.95;;;;;;;16.09;100.00;100323.94;5014201;28;20642;-64
2023/07/24 06:36:19;;;;;;;12.10;9.20;;;;;;;16.15;100.00;100319.56;5013552;28;20045;-63
2023/07/24 06:38:46;;;;;;;11.90;8.70;;;;;;;16.18;100.00;100316.44;5015821;28;20022;-64
2023/07/24 06:41:12;;;;;;;11.27;8.57;;;;;;;16.18;100.00;100324.47;5019964;28;20026;-63
2023/07/24 06:43:37;;;;;;;11.32;8.68;;;;;;;16.21;100.00;100324.06;5020435;28;20040;-64
2023/07/24 06:46:02;;;;;;;14.20;9.32;;;;;;;16.23;100.00;100324.66;5020251;28;20052;-63
2023/07/24 06:48:27;;;;;;;13.00;9.32;;;;;;;16.27;100.00;100322.34;5018409;28;20032;-64
2023/07/24 06:50:53;;;;;;;13.13;10.13;;;;;;;16.30;100.00;100320.03;5022383;28;20024;-64
2023/07/24 06:53:18;;;;;;;12.55;9.88;;;;;;;16.37;100.00;100312.75;5018229;28;20380;-65
2023/07/24 06:55:43;;;;;;;15.85;10.50;;;;;;;16.42;100.00;100320.94;5021979;28;20022;-64
2023/07/24 06:58:08;;;;;;;14.52;11.07;;;;;;;16.49;100.00;100323.59;5022442;28;20025;-64
2023/07/24 07:00:34;;;;;;;17.48;11.60;;;;;;;16.55;100.00;100319.19;5021954;28;20466;-64
2023/07/24 07:02:59;;;;;;;16.60;11.52;;;;;;;16.59;100.00;100320.38;5021698;28;20025;-63
2023/07/24 07:05:24;;;;;;;15.85;11.45;;;;;;;16.60;100.00;100324.69;5017786;28;20025;-64
2023/07/24 07:07:49;;;;;;;19.52;12.27;;;;;;;16.60;100.00;100328.19;5023341;28;20065;-64
2023/07/24 07:10:15;;;;;;;16.02;12.10;;;;;;;16.62;100.00;100315.38;5020460;28;20032;-64
2023/07/24 07:12:40;;;;;;;15.68;11.70;;;;;;;16.62;100.00;100314.56;5024963;28;20021;-64
2023/07/24 07:15:06;;;;;;;15.38;11.77;;;;;;;16.58;100.00;100318.75;5024322;28;20116;-63
2023/07/24 07:17:31;;;;;;;16.52;11.68;;;;;;;16.63;100.00;100326.94;5024947;28;20025;-64
2023/07/24 07:19:57;;;;;;;14.82;11.43;;;;;;;16.61;100.00;100320.97;5020885;28;20034;-64
2023/07/24 07:22:22;;;;;;;13.65;10.20;;;;;;;16.57;100.00;100319.78;5024386;28;20013;-64
2023/07/24 07:24:48;;;;;;;14.02;10.20;;;;;;;16.54;100.00;100317.56;5024299;28;20025;-64
2023/07/24 07:27:17;;;;;;;14.55;10.27;;;;;;;16.50;100.00;100313.69;5027470;28;20036;-63
2023/07/24 07:29:42;;;;;;;14.63;10.00;;;;;;;16.46;100.00;100320.50;5028663;28;20025;-64
2023/07/24 07:32:08;;;;;;;14.23;10.05;;;;;;;16.44;100.00;100315.38;5024199;28;20497;-63
2023/07/24 07:34:34;;;;;;;13.38;10.30;;;;;;;16.43;100.00;100311.03;5023566;28;20021;-64
2023/07/24 07:36:59;;;;;;;14.98;11.30;;;;;;;16.45;100.00;100313.50;5024525;28;20022;-64
2023/07/24 07:39:25;;;;;;;14.65;9.55;;;;;;;16.39;100.00;100307.16;5028868;28;20545;-64
2023/07/24 07:41:50;;;;;;;10.50;9.27;;;;;;;16.35;100.00;100308.66;5025058;28;20030;-64
2023/07/24 07:44:15;;;;;;;12.20;9.30;;;;;;;16.33;100.00;100314.25;5027683;28;20449;-64
2023/07/24 07:46:41;;;;;;;11.82;8.90;;;;;;;16.33;100.00;100305.38;5020208;28;20100;-63
2023/07/24 07:49:06;;;;;;;11.57;9.02;;;;;;;16.39;100.00;100304.50;5020174;28;20031;-64
2023/07/24 07:51:31;;;;;;;12.45;9.00;;;;;;;16.51;100.00;100304.59;5018598;28;20021;-63
2023/07/24 07:53:56;;;;;;;13.57;9.60;;;;;;;16.70;100.00;100307.06;5028462;28;20025;-63
2023/07/24 07:56:22;;;;;;;11.18;8.82;;;;;;;16.82;100.00;100309.84;5023188;28;20208;-63
2023/07/24 07:58:47;;;;;;;12.30;9.65;;;;;;;16.86;100.00;100316.38;5020869;28;20017;-64
2023/07/24 08:01:12;;;;;;;12.52;10.10;;;;;;;16.87;100.00;100307.31;5023658;28;20021;-63
2023/07/24 08:03:37;;;;;;;11.98;9.43;;;;;;;16.88;100.00;100318.84;5029422;28;20013;-64
2023/07/24 08:06:03;;;;;;;12.93;10.70;;;;;;;16.88;100.00;100314.31;5023797;28;20026;-63
2023/07/24 08:08:28;;;;;;;16.88;10.57;;;;;;;16.87;100.00;100315.34;5023424;28;20030;-64
2023/07/24 08:10:53;;;;;;;12.18;9.63;;;;;;;16.88;100.00;100319.66;5020685;28;20041;-64
2023/07/24 08:13:19;;;;;;;12.77;9.70;;;;;;;16.87;100.00;100320.72;5027527;28;20021;-63
2023/07/24 08:15:44;;;;;;;11.98;10.27;;;;;;;16.89;100.00;100331.22;5028763;28;20032;-63
2023/07/24 08:18:09;;;;;;;12.82;10.63;;;;;;;16.90;100.00;100328.31;5017481;28;20609;-63
2023/07/24 08:20:37;;;;;;;12.90;11.23;;;;;;;16.95;100.00;100319.59;5016015;28;20081;-64
2023/07/24 08:23:02;;;;;;;13.05;11.65;;;;;;;17.11;100.00;100335.06;5020231;28;20025;-63
2023/07/24 08:25:27;;;;;;;11.88;10.05;;;;;;;17.16;100.00;100310.25;5020125;28;20029;-64
2023/07/24 08:27:52;;;;;;;13.25;9.75;;;;;;;17.21;100.00;100311.19;5024782;28;20100;-63
2023/07/24 08:30:18;;;;;;;12.80;9.65;;;;;;;17.33;100.00;100309.38;5021015;28;20036;-63
2023/07/24 08:32:43;;;;;;;11.50;9.02;;;;;;;17.45;100.00;100308.59;5018117;28;20028;-63
2023/07/24 08:35:09;;;;;;;11.88;9.00;;;;;;;17.43;99.26;100324.94;5025305;28;20029;-63
2023/07/24 08:37:34;;;;;;;10.13;9.07;;;;;;;17.35;98.58;100319.91;5020483;28;20607;-63
2023/07/24 08:39:59;;;;;;;11.73;10.52;;;;;;;17.27;97.70;100314.84;5019435;28;20051;-64
2023/07/24 08:42:25;;;;;;;14.50;11.10;;;;;;;17.28;97.87;100316.47;5024585;28;20036;-64
2023/07/24 08:44:52;;;;;;;13.70;11.85;;;;;;;17.31;97.88;100313.31;5024628;28;20485;-64
2023/07/24 08:47:19;;;;;;;14.80;12.27;;;;;;;17.37;98.32;100317.81;5029109;28;20037;-64
2023/07/24 08:49:45;;;;;;;14.35;12.27;;;;;;;17.36;98.21;100318.03;5022934;28;20021;-64
2023/07/24 08:52:11;;;;;;;14.85;12.90;;;;;;;17.31;97.73;100311.47;5020787;28;20038;-65
2023/07/24 08:54:38;;;;;;;14.48;12.98;;;;;;;17.22;97.82;100307.47;5021785;28;20026;-64
2023/07/24 08:57:06;;;;;;;15.57;12.95;;;;;;;17.11;98.27;100312.78;5026604;28;20068;-64
2023/07/24 08:59:31;;;;;;;14.53;12.67;;;;;;;17.02;98.71;100309.59;5014445;28;20034;-65
2023/07/24 09:01:56;;;;;;;14.82;12.93;;;;;;;16.93;99.51;100306.41;5022931;28;20036;-64
2023/07/24 09:04:22;;;;;;;14.57;12.88;;;;;;;16.86;99.98;100297.63;5027661;28;20053;-64
2023/07/24 09:06:48;;;;;;;16.58;13.73;;;;;;;16.86;100.00;100284.22;5022213;28;20507;-65
2023/07/24 09:09:14;;;;;;;16.52;13.20;;;;;;;16.82;100.00;100287.56;5028521;28;20044;-65
2023/07/24 09:11:51;;;;;;;14.98;13.10;;;;;;;16.80;100.00;100292.34;5018330;28;20022;-65
2023/07/24 09:14:32;;;;;;;14.90;13.35;;;;;;;16.77;100.00;100295.44;5026836;28;20032;-65
2023/07/24 09:17:08;;;;;;;16.20;14.57;;;;;;;16.80;100.00;100281.63;5023725;28;20153;-64
2023/07/24 09:19:35;;;;;;;16.73;14.63;;;;;;;16.88;100.00;100275.94;5018928;28;20029;-64
2023/07/24 09:22:12;;;;;;;16.00;13.02;;;;;;;16.93;100.00;100271.53;5027717;28;20025;-65
2023/07/24 09:24:37;;;;;;;15.77;14.07;;;;;;;17.07;100.00;100277.56;5025667;28;20021;-64
2023/07/24 09:27:06;;;;;;;13.95;12.45;;;;;;;17.10;100.00;100274.41;5020552;28;20030;-64
2023/07/24 09:29:33;;;;;;;14.40;12.90;;;;;;;17.11;100.00;100280.59;5015659;28;20107;-64
2023/07/24 09:31:59;;;;;;;10.77;9.13;;;;;;;17.02;100.00;100275.53;5025169;28;20478;-64
2023/07/24 09:34:25;;;;;;;11.50;9.55;;;;;;;16.96;100.00;100271.06;5020118;28;20053;-64
2023/07/24 09:36:51;;;;;;;11.82;9.82;;;;;;;16.95;100.00;100277.47;5018416;28;20117;-64
2023/07/24 09:39:23;;;;;;;9.40;8.10;;;;;;;16.90;100.00;100269.31;5018859;28;20406;-65
2023/07/24 09:41:49;;;;;;;10.43;8.25;;;;;;;16.86;100.00;100252.03;5022848;28;20151;-64
2023/07/24 09:44:14;;;;;;;12.27;8.35;;;;;;;16.84;100.00;100255.97;5020608;28;20053;-64
2023/07/24 09:46:43;;;;;;;10.40;8.23;;;;;;;16.81;100.00;100251.88;5021495;28;20103;-64
2023/07/24 09:49:08;;;;;;;12.02;9.25;;;;;;;16.81;100.00;100246.53;5027297;28;20079;-64
2023/07/24 09:51:34;;;;;;;12.25;9.10;;;;;;;16.84;99.92;100239.88;5018290;28;20022;-64
2023/07/24 09:54:25;;;;;;;11.20;9.43;;;;;;;16.88;100.00;100235.69;5025447;28;20036;-64
2023/07/24 09:56:51;;;;;;;12.07;10.00;;;;;;;16.87;100.00;100232.19;5015871;28;20033;-64
2023/07/24 09:59:18;;;;;;;11.43;9.45;;;;;;;16.95;100.00;100233.75;5019985;28;20034;-64
2023/07/24 10:01:44;;;;;;;12.57;10.02;;;;;;;17.00;100.00;100232.00;5024677;28;20033;-64
2023/07/24 10:04:09;;;;;;;13.10;10.20;;;;;;;17.07;100.00;100233.81;5017840;28;20033;-64
2023/07/24 10:06:35;;;;;;;12.10;10.43;;;;;;;17.01;100.00;100241.69;5025306;28;20061;-64
2023/07/24 10:09:01;;;;;;;13.27;10.48;;;;;;;17.00;100.00;100226.66;5026215;28;20432;-64
2023/07/24 10:11:26;;;;;;;13.75;11.10;;;;;;;17.06;100.00;100222.25;5020853;28;20199;-63
2023/07/24 10:13:53;;;;;;;13.25;10.57;;;;;;;17.07;100.00;100223.06;5021207;28;20538;-64
2023/07/24 10:16:18;;;;;;;12.90;11.23;;;;;;;17.12;100.00;100223.22;5023471;28;20437;-64
2023/07/24 10:18:45;;;;;;;14.10;10.88;;;;;;;17.17;100.00;100218.78;5022107;28;20565;-64
2023/07/24 10:21:11;;;;;;;15.20;12.20;;;;;;;17.18;100.00;100219.59;5023711;28;20022;-64
2023/07/24 10:23:48;;;;;;;15.65;12.30;;;;;;;17.21;100.00;100232.56;5019900;28;20026;-64
2023/07/24 10:26:15;;;;;;;15.43;12.13;;;;;;;17.23;100.00;100233.16;5021090;28;20025;-64
2023/07/24 10:28:41;;;;;;;15.00;12.48;;;;;;;17.26;100.00;100236.19;5023722;28;20040;-64
2023/07/24 10:31:21;;;;;;;13.80;12.05;;;;;;;17.25;100.00;100239.09;5019071;28;20014;-64
2023/07/24 10:33:47;;;;;;;13.18;11.25;;;;;;;17.20;100.00;100239.78;5022669;28;20510;-64
2023/07/24 10:36:19;;;;;;;14.90;12.50;;;;;;;17.20;100.00;100249.72;5019288;28;20556;-64
2023/07/24 10:38:44;;;;;;;14.95;11.88;;;;;;;17.22;100.00;100248.44;5025575;28;20057;-64
2023/07/24 10:41:11;;;;;;;16.80;11.85;;;;;;;17.27;100.00;100245.88;5023642;28;20083;-64
2023/07/24 10:43:50;;;;;;;14.05;10.90;;;;;;;17.32;100.00;100248.69;5013692;28;20030;-64
2023/07/24 10:46:18;;;;;;;14.65;11.35;;;;;;;17.46;100.00;100248.50;5021395;28;20043;-64
2023/07/24 10:48:45;;;;;;;13.53;11.40;;;;;;;17.55;100.00;100239.88;5024263;28;20021;-64
2023/07/24 10:51:14;;;;;;;14.25;12.75;;;;;;;17.63;100.00;100247.59;5024428;28;20014;-64
2023/07/24 10:53:42;;;;;;;16.02;14.18;;;;;;;17.73;100.00;100254.31;5021739;28;20022;-64
2023/07/24 10:56:08;;;;;;;15.70;13.23;;;;;;;17.71;100.00;100259.09;5027058;28;20167;-64
2023/07/24 10:58:35;;;;;;;13.20;11.82;;;;;;;17.65;100.00;100268.88;5022241;28;20120;-63
2023/07/24 11:01:04;;;;;;;14.05;12.02;;;;;;;17.67;99.67;100276.69;5023821;28;20037;-63
2023/07/24 11:03:30;;;;;;;16.20;11.85;;;;;;;17.72;100.00;100272.28;5019735;28;20033;-64
2023/07/24 11:05:57;;;;;;;12.07;10.77;;;;;;;17.73;100.00;100273.09;5025585;28;20090;-64
2023/07/24 11:08:22;;;;;;;13.02;10.77;;;;;;;17.70;99.79;100262.81;5023267;28;20037;-64